createdAt,value
2022-09-16T00:00:59.296Z,11.90
2022-09-16T00:03:26.947Z,11.88
2022-09-16T00:05:54.873Z,11.90
2022-09-16T00:08:23.250Z,11.87
2022-09-16T00:10:51.326Z,11.90
2022-09-16T00:13:19.955Z,11.92
2022-09-16T00:15:50.976Z,11.93
2022-09-16T00:18:19.530Z,11.92
2022-09-16T00:20:52.368Z,11.97
2022-09-16T00:23:20.928Z,11.98
2022-09-16T00:25:53.629Z,12.00
2022-09-16T00:28:22.720Z,12.06
2022-09-16T00:30:50.764Z,12.07
2022-09-16T00:33:18.787Z,12.09
2022-09-16T00:35:46.843Z,12.01
2022-09-16T00:38:15.050Z,12.04
2022-09-16T00:40:51.247Z,11.96
2022-09-16T00:43:20.571Z,11.97
2022-09-16T00:45:55.675Z,11.94
2022-09-16T00:48:27.343Z,11.92
2022-09-16T00:51:03.345Z,11.90
2022-09-16T00:53:39.528Z,11.89
2022-09-16T00:56:13.087Z,11.83
2022-09-16T00:58:47.818Z,11.82
2022-09-16T01:01:15.643Z,11.77
2022-09-16T01:03:47.827Z,11.77
2022-09-16T01:06:18.163Z,11.75
2022-09-16T01:08:46.549Z,11.79
2022-09-16T01:11:14.027Z,11.77
2022-09-16T01:13:43.839Z,11.75
2022-09-16T01:16:17.642Z,11.74
2022-09-16T01:18:56.227Z,11.77
2022-09-16T01:21:49.574Z,11.72
2022-09-16T01:24:55.426Z,11.72
2022-09-16T01:27:36.287Z,11.72
2022-09-16T01:30:31.374Z,11.64
2022-09-16T01:33:04.876Z,11.59
2022-09-16T01:36:00.186Z,11.51
2022-09-16T01:38:34.732Z,11.45
2022-09-16T01:41:11.024Z,11.41
2022-09-16T01:44:04.905Z,11.38
2022-09-16T01:47:03.173Z,11.34
2022-09-16T01:49:58.923Z,11.31
2022-09-16T01:52:40.928Z,11.23
2022-09-16T01:55:30.519Z,11.26
2022-09-16T01:58:04.440Z,11.22
2022-09-16T02:00:32.741Z,11.26
2022-09-16T02:03:06.602Z,11.31
2022-09-16T02:05:48.115Z,11.29
2022-09-16T02:08:22.502Z,11.33
2022-09-16T02:10:55.043Z,11.34
2022-09-16T02:13:31.737Z,11.35
2022-09-16T02:16:05.147Z,11.39
2022-09-16T02:18:36.797Z,11.38
2022-09-16T02:21:07.941Z,11.44
2022-09-16T02:24:04.206Z,11.53
2022-09-16T02:26:38.870Z,11.54
2022-09-16T02:29:18.865Z,11.53
2022-09-16T02:31:49.537Z,11.54
2022-09-16T02:34:29.382Z,11.56
2022-09-16T02:37:02.524Z,11.62
2022-09-16T02:39:33.471Z,11.60
2022-09-16T02:42:02.138Z,11.62
2022-09-16T02:44:29.712Z,11.52
2022-09-16T02:47:13.761Z,11.63
2022-09-16T02:49:45.977Z,11.57
2022-09-16T02:52:31.634Z,11.62
2022-09-16T02:55:20.724Z,11.58
2022-09-16T02:57:48.454Z,11.53
2022-09-16T03:00:16.135Z,11.50
2022-09-16T03:02:43.966Z,11.49
2022-09-16T03:05:11.621Z,11.43
2022-09-16T03:07:42.421Z,11.36
2022-09-16T03:10:12.816Z,11.32
2022-09-16T03:12:49.589Z,11.28
2022-09-16T03:15:24.999Z,11.21
2022-09-16T03:18:14.834Z,11.17
2022-09-16T03:21:03.751Z,11.16
2022-09-16T03:24:05.424Z,11.13
2022-09-16T03:26:38.329Z,11.15
2022-09-16T03:29:43.737Z,11.17
2022-09-16T03:32:28.449Z,11.21
2022-09-16T03:35:04.181Z,11.21
2022-09-16T03:37:35.516Z,11.21
2022-09-16T03:40:11.084Z,11.28
2022-09-16T03:42:44.258Z,11.32
2022-09-16T03:45:21.474Z,11.14
2022-09-16T03:47:51.169Z,11.09
2022-09-16T03:50:20.367Z,11.07
2022-09-16T03:52:48.030Z,11.09
2022-09-16T03:55:16.850Z,11.10
2022-09-16T03:57:44.511Z,11.10
2022-09-16T04:00:12.483Z,11.17
2022-09-16T04:02:40.291Z,11.15
2022-09-16T04:05:09.246Z,11.15
2022-09-16T04:07:36.930Z,11.16
2022-09-16T04:10:05.863Z,11.15
2022-09-16T04:12:33.789Z,11.18
2022-09-16T04:15:01.364Z,11.21
2022-09-16T04:17:32.079Z,11.24
2022-09-16T04:19:59.631Z,11.27
2022-09-16T04:22:30.582Z,11.26
2022-09-16T04:24:58.885Z,11.26
2022-09-16T04:27:26.402Z,11.23
2022-09-16T04:29:53.971Z,11.21
2022-09-16T04:32:21.518Z,11.15
2022-09-16T04:34:49.247Z,11.09
2022-09-16T04:37:17.122Z,11.00
2022-09-16T04:39:44.981Z,10.92
2022-09-16T04:42:13.202Z,10.88
2022-09-16T04:44:40.858Z,10.83
2022-09-16T04:47:08.407Z,10.79
2022-09-16T04:49:35.954Z,10.73
2022-09-16T04:52:04.091Z,10.70
2022-09-16T04:54:31.648Z,10.59
2022-09-16T04:56:59.179Z,10.66
2022-09-16T04:59:26.671Z,10.66
2022-09-16T05:01:54.304Z,10.68
2022-09-16T05:04:21.927Z,10.71
2022-09-16T05:06:49.375Z,10.75
2022-09-16T05:09:16.919Z,10.81
2022-09-16T05:11:44.514Z,10.79
2022-09-16T05:14:15.803Z,10.80
2022-09-16T05:16:44.227Z,10.80
2022-09-16T05:19:13.221Z,10.77
2022-09-16T05:21:41.378Z,10.78
2022-09-16T05:24:11.395Z,10.84
2022-09-16T05:26:41.884Z,10.87
2022-09-16T05:29:13.017Z,10.90
2022-09-16T05:31:42.832Z,10.91
2022-09-16T05:34:19.432Z,10.88
2022-09-16T05:36:48.840Z,10.80
2022-09-16T05:39:26.159Z,10.77
2022-09-16T05:41:59.832Z,10.70
2022-09-16T05:44:28.734Z,10.64
2022-09-16T05:46:56.374Z,10.62
2022-09-16T05:49:24.316Z,10.56
2022-09-16T05:51:52.150Z,10.49
2022-09-16T05:54:20.538Z,10.51
2022-09-16T05:56:48.717Z,10.50
2022-09-16T05:59:17.493Z,10.50
2022-09-16T06:01:45.868Z,10.51
2022-09-16T06:04:15.256Z,10.62
2022-09-16T06:06:47.866Z,10.74
2022-09-16T06:09:26.195Z,10.85
2022-09-16T06:12:00.965Z,10.94
2022-09-16T06:14:29.545Z,10.98
2022-09-16T06:16:57.174Z,11.03
2022-09-16T06:19:24.695Z,11.02
2022-09-16T06:21:52.292Z,11.02
2022-09-16T06:24:21.749Z,11.00
2022-09-16T06:26:50.245Z,10.93
2022-09-16T06:29:18.403Z,10.94
2022-09-16T06:31:46.105Z,11.00
2022-09-16T06:34:19.024Z,11.10
2022-09-16T06:36:46.999Z,11.23
2022-09-16T06:39:16.159Z,11.39
2022-09-16T06:41:43.986Z,11.62
2022-09-16T06:44:11.546Z,11.83
2022-09-16T06:46:39.367Z,12.05
2022-09-16T06:49:07.104Z,12.03
2022-09-16T06:51:35.872Z,11.98
2022-09-16T06:54:05.882Z,11.96
2022-09-16T06:56:36.041Z,11.89
2022-09-16T06:59:03.972Z,11.81
2022-09-16T07:01:32.751Z,11.68
2022-09-16T07:04:05.411Z,11.64
2022-09-16T07:06:58.269Z,11.61
2022-09-16T07:09:21.275Z,11.62
2022-09-16T07:11:48.727Z,11.73
2022-09-16T07:14:16.168Z,11.85
2022-09-16T07:16:43.729Z,12.03
2022-09-16T07:19:11.404Z,12.17
2022-09-16T07:21:39.014Z,12.33
2022-09-16T07:24:06.695Z,12.43
2022-09-16T07:26:37.652Z,12.44
2022-09-16T07:29:06.926Z,12.56
2022-09-16T07:31:38.717Z,12.72
2022-09-16T07:34:08.226Z,12.89
2022-09-16T07:36:44.303Z,12.79
2022-09-16T07:39:13.616Z,13.08
2022-09-16T07:41:43.410Z,13.17
2022-09-16T07:44:16.209Z,13.23
2022-09-16T07:46:44.519Z,13.37
2022-09-16T07:49:15.269Z,13.54
2022-09-16T07:51:43.079Z,13.77
2022-09-16T07:54:14.371Z,13.82
2022-09-16T07:56:43.708Z,13.67
2022-09-16T07:59:17.659Z,13.90
2022-09-16T08:01:47.161Z,13.85
2022-09-16T08:04:14.813Z,13.44
2022-09-16T08:06:42.489Z,13.12
2022-09-16T08:09:27.353Z,13.01
2022-09-16T08:11:57.546Z,12.63
2022-09-16T08:14:25.429Z,12.38
2022-09-16T08:16:52.983Z,12.05
2022-09-16T08:19:22.257Z,11.86
2022-09-16T08:21:50.107Z,11.80
2022-09-16T08:24:17.575Z,11.77
2022-09-16T08:26:45.126Z,11.72
2022-09-16T08:29:12.834Z,11.73
2022-09-16T08:31:40.712Z,11.81
2022-09-16T08:34:08.203Z,11.94
2022-09-16T08:36:35.810Z,12.15
2022-09-16T08:39:03.570Z,12.65
2022-09-16T08:41:43.260Z,13.23
2022-09-16T08:44:28.785Z,13.38
2022-09-16T08:47:00.796Z,13.36
2022-09-16T08:49:46.385Z,13.29
2022-09-16T08:52:24.798Z,13.30
2022-09-16T08:54:56.849Z,13.42
2022-09-16T08:57:30.075Z,13.51
2022-09-16T09:00:13.682Z,13.76
2022-09-16T09:02:56.499Z,13.96
2022-09-16T09:05:32.512Z,13.68
2022-09-16T09:08:10.014Z,13.28
2022-09-16T09:10:49.384Z,13.15
2022-09-16T09:13:48.103Z,12.85
2022-09-16T09:16:20.133Z,12.71
2022-09-16T09:19:14.627Z,12.68
2022-09-16T09:21:46.938Z,12.63
2022-09-16T09:24:26.532Z,12.66
2022-09-16T09:27:01.664Z,12.99
2022-09-16T09:29:50.830Z,13.26
2022-09-16T09:32:48.133Z,13.23
2022-09-16T09:35:29.444Z,13.40
2022-09-16T09:38:29.601Z,13.79
2022-09-16T09:41:04.317Z,14.43
2022-09-16T09:43:42.953Z,15.12
2022-09-16T09:46:31.123Z,15.26
2022-09-16T09:49:05.249Z,15.76
2022-09-16T09:51:38.338Z,15.79
2022-09-16T09:54:27.939Z,15.58
2022-09-16T09:57:03.559Z,15.22
2022-09-16T09:59:48.075Z,15.14
2022-09-16T10:02:18.925Z,15.08
2022-09-16T10:04:47.015Z,15.30
2022-09-16T10:07:17.292Z,15.40
2022-09-16T10:10:13.352Z,15.39
2022-09-16T10:12:40.832Z,15.17
2022-09-16T10:15:21.854Z,14.22
2022-09-16T10:17:51.269Z,13.78
2022-09-16T10:20:40.610Z,13.14
2022-09-16T10:23:12.975Z,12.93
2022-09-16T10:25:41.729Z,12.63
2022-09-16T10:28:25.185Z,12.46
2022-09-16T10:30:58.538Z,12.27
2022-09-16T10:33:31.649Z,12.18
2022-09-16T10:36:03.627Z,12.10
2022-09-16T10:38:40.465Z,12.07
2022-09-16T10:41:15.431Z,12.14
2022-09-16T10:43:51.610Z,12.09
2022-09-16T10:46:20.675Z,12.05
2022-09-16T10:48:51.837Z,12.04
2022-09-16T10:51:28.520Z,12.06
2022-09-16T10:53:59.124Z,12.16
2022-09-16T10:56:30.167Z,12.49
2022-09-16T10:59:15.351Z,12.91
2022-09-16T11:02:01.500Z,13.37
2022-09-16T11:04:50.700Z,13.87
2022-09-16T11:07:39.432Z,14.96
2022-09-16T11:10:33.857Z,15.49
2022-09-16T11:13:09.489Z,15.75
2022-09-16T11:15:53.185Z,16.18
2022-09-16T11:18:52.272Z,15.97
2022-09-16T11:21:44.574Z,15.43
2022-09-16T11:24:49.921Z,14.70
2022-09-16T11:27:39.998Z,13.63
2022-09-16T11:30:18.225Z,13.17
2022-09-16T11:33:03.369Z,12.87
2022-09-16T11:36:16.048Z,12.62
2022-09-16T11:38:58.840Z,12.58
2022-09-16T11:41:42.582Z,12.82
2022-09-16T11:44:16.283Z,13.24
2022-09-16T11:47:21.055Z,13.74
2022-09-16T11:49:48.449Z,14.13
2022-09-16T11:52:28.365Z,14.71
2022-09-16T11:55:18.357Z,15.04
2022-09-16T11:57:54.991Z,15.68
2022-09-16T12:00:22.528Z,15.99
2022-09-16T12:02:59.382Z,16.45
2022-09-16T12:05:44.340Z,16.90
2022-09-16T12:08:14.348Z,16.83
2022-09-16T12:10:56.868Z,17.02
2022-09-16T12:13:43.080Z,17.59
2022-09-16T12:16:15.117Z,17.00
2022-09-16T12:18:52.646Z,16.82
2022-09-16T12:21:29.498Z,16.74
2022-09-16T12:24:06.346Z,17.00
2022-09-16T12:27:04.105Z,17.25
2022-09-16T12:29:45.216Z,17.35
2022-09-16T12:32:19.643Z,17.45
2022-09-16T12:35:02.348Z,16.90
2022-09-16T12:37:41.274Z,16.82
2022-09-16T12:40:18.566Z,16.21
2022-09-16T12:43:02.316Z,15.72
2022-09-16T12:45:50.706Z,15.22
2022-09-16T12:48:45.578Z,15.15
2022-09-16T12:51:24.957Z,15.03
2022-09-16T12:54:01.799Z,14.71
2022-09-16T12:56:41.491Z,14.65
2022-09-16T12:59:27.004Z,14.68
2022-09-16T13:02:01.982Z,14.72
2022-09-16T13:04:35.262Z,14.73
2022-09-16T13:07:02.982Z,15.53
2022-09-16T13:09:36.164Z,16.13
2022-09-16T13:15:23.247Z,16.99
2022-09-16T13:17:53.046Z,17.33
2022-09-16T13:20:50.027Z,17.91
2022-09-16T13:23:25.830Z,18.03
2022-09-16T13:26:02.464Z,18.31
2022-09-16T13:28:44.986Z,18.49
2022-09-16T13:31:12.491Z,18.67
2022-09-16T13:33:41.800Z,18.42
2022-09-16T13:36:17.475Z,18.17
2022-09-16T13:38:49.704Z,17.88
2022-09-16T13:41:37.463Z,17.80
2022-09-16T13:44:27.436Z,17.36
2022-09-16T13:46:55.321Z,17.06
2022-09-16T13:49:27.794Z,16.63
2022-09-16T13:51:55.670Z,16.32
2022-09-16T13:54:26.071Z,16.00
2022-09-16T13:57:22.924Z,15.77
2022-09-16T14:00:08.758Z,16.08
2022-09-16T14:02:36.246Z,15.84
2022-09-16T14:05:30.391Z,15.71
2022-09-16T14:08:28.167Z,15.55
2022-09-16T14:11:22.176Z,15.38
2022-09-16T14:14:04.633Z,15.44
2022-09-16T14:16:35.929Z,15.66
2022-09-16T14:19:19.970Z,16.06
2022-09-16T14:21:48.223Z,16.31
2022-09-16T14:24:20.690Z,15.99
2022-09-16T14:26:58.147Z,16.05
2022-09-16T14:29:27.220Z,16.08
2022-09-16T14:31:57.824Z,15.88
2022-09-16T14:34:27.896Z,16.10
2022-09-16T14:36:55.821Z,16.06
2022-09-16T14:39:26.585Z,15.73
2022-09-16T14:41:55.779Z,15.49
2022-09-16T14:44:37.962Z,15.35
2022-09-16T14:47:50.031Z,15.31
2022-09-16T14:50:26.290Z,15.22
2022-09-16T14:53:02.590Z,15.04
2022-09-16T14:55:31.763Z,15.02
2022-09-16T14:58:00.782Z,14.98
2022-09-16T15:00:42.357Z,14.67
2022-09-16T15:03:15.941Z,14.82
2022-09-16T15:05:47.364Z,14.95
2022-09-16T15:08:35.854Z,14.90
2022-09-16T15:11:29.735Z,14.77
2022-09-16T15:14:02.125Z,14.61
2022-09-16T15:16:29.769Z,14.65
2022-09-16T15:19:02.921Z,14.62
2022-09-16T15:21:34.245Z,14.71
2022-09-16T15:24:05.119Z,14.88
2022-09-16T15:26:53.789Z,14.79
2022-09-16T15:29:21.243Z,14.88
2022-09-16T15:31:50.642Z,14.87
2022-09-16T15:34:18.747Z,14.91
2022-09-16T15:36:57.308Z,14.87
2022-09-16T15:39:29.359Z,14.97
2022-09-16T15:42:24.301Z,15.25
2022-09-16T15:45:03.960Z,15.28
2022-09-16T15:47:34.111Z,15.40
2022-09-16T15:50:06.571Z,15.31
2022-09-16T15:52:55.096Z,15.25
2022-09-16T15:55:47.455Z,15.24
2022-09-16T15:58:19.524Z,15.08
2022-09-16T16:01:11.146Z,15.01
2022-09-16T16:04:00.728Z,14.84
2022-09-16T16:06:49.736Z,14.91
2022-09-16T16:09:29.474Z,14.86
2022-09-16T16:12:01.870Z,14.66
2022-09-16T16:14:32.915Z,14.46
2022-09-16T16:17:13.207Z,14.42
2022-09-16T16:19:42.881Z,14.28
2022-09-16T16:22:11.727Z,14.09
2022-09-16T16:24:39.652Z,14.06
2022-09-16T16:27:08.497Z,13.99
2022-09-16T16:29:36.098Z,14.00
2022-09-16T16:32:07.716Z,13.99
2022-09-16T16:34:43.608Z,14.09
2022-09-16T16:37:28.013Z,14.18
2022-09-16T16:40:00.587Z,14.15
2022-09-16T16:42:28.866Z,13.80
2022-09-16T16:44:56.518Z,13.18
2022-09-16T16:47:24.280Z,12.75
2022-09-16T16:49:52.017Z,12.64
2022-09-16T16:52:19.824Z,12.56
2022-09-16T16:54:47.327Z,12.48
2022-09-16T16:57:15.047Z,12.42
2022-09-16T16:59:42.459Z,12.34
2022-09-16T17:02:12.605Z,12.32
2022-09-16T17:04:40.127Z,12.36
2022-09-16T17:07:25.301Z,12.37
2022-09-16T17:09:54.598Z,12.40
2022-09-16T17:12:22.533Z,12.42
2022-09-16T17:14:50.023Z,12.49
2022-09-16T17:17:17.534Z,12.57
2022-09-16T17:19:45.125Z,12.62
2022-09-16T17:22:12.629Z,12.62
2022-09-16T17:24:40.230Z,12.64
2022-09-16T17:27:07.910Z,12.66
2022-09-16T17:29:35.489Z,12.64
2022-09-16T17:32:03.431Z,12.71
2022-09-16T17:34:31.142Z,12.75
2022-09-16T17:36:58.863Z,12.80
2022-09-16T17:39:26.435Z,12.80
2022-09-16T17:41:54.514Z,12.75
2022-09-16T17:44:22.125Z,12.67
2022-09-16T17:46:49.847Z,12.62
2022-09-16T17:49:22.651Z,12.58
2022-09-16T17:51:54.115Z,12.52
2022-09-16T17:54:22.433Z,12.50
2022-09-16T17:56:49.934Z,12.45
2022-09-16T17:59:19.223Z,12.44
2022-09-16T18:01:47.055Z,12.41
2022-09-16T18:04:14.562Z,12.39
2022-09-16T18:06:44.887Z,12.32
2022-09-16T18:09:13.290Z,12.33
2022-09-16T18:11:41.212Z,12.34
2022-09-16T18:14:11.877Z,12.34
2022-09-16T18:16:40.090Z,12.31
2022-09-16T18:19:08.007Z,12.33
2022-09-16T18:21:36.789Z,12.34
2022-09-16T18:24:08.479Z,12.30
2022-09-16T18:26:35.984Z,12.18
2022-09-16T18:29:17.933Z,12.19
2022-09-16T18:31:47.923Z,12.11
2022-09-16T18:34:17.395Z,12.15
2022-09-16T18:36:45.289Z,12.12
2022-09-16T18:39:16.489Z,12.05
2022-09-16T18:41:46.075Z,11.99
2022-09-16T18:44:23.609Z,11.90
2022-09-16T18:46:51.957Z,11.92
2022-09-16T18:49:21.996Z,11.88
2022-09-16T18:51:52.337Z,11.98
2022-09-16T18:54:24.669Z,11.96
2022-09-16T18:56:53.082Z,11.92
2022-09-16T18:59:24.276Z,11.93
2022-09-16T19:01:54.591Z,11.92
2022-09-16T19:04:24.998Z,11.94
2022-09-16T19:06:55.571Z,11.94
2022-09-16T19:09:24.911Z,11.93
2022-09-16T19:11:54.280Z,11.92
2022-09-16T19:14:24.273Z,11.90
2022-09-16T19:16:51.913Z,11.97
2022-09-16T19:19:19.440Z,11.98
2022-09-16T19:21:47.200Z,12.04
2022-09-16T19:24:26.949Z,12.01
2022-09-16T19:26:56.058Z,12.00
2022-09-16T19:29:24.229Z,11.97
2022-09-16T19:31:53.076Z,11.94
2022-09-16T19:34:21.422Z,11.91
2022-09-16T19:36:49.663Z,11.84
2022-09-16T19:39:17.269Z,11.84
2022-09-16T19:41:45.126Z,11.82
2022-09-16T19:44:15.628Z,11.79
2022-09-16T19:46:44.774Z,11.80
2022-09-16T19:49:17.213Z,11.84
2022-09-16T19:51:46.268Z,11.80
2022-09-16T19:54:13.759Z,11.79
2022-09-16T19:56:41.859Z,11.82
2022-09-16T19:59:09.821Z,11.73
2022-09-16T20:01:38.021Z,11.85
2022-09-16T20:04:08.265Z,11.84
2022-09-16T20:06:43.284Z,11.85
2022-09-16T20:09:13.048Z,11.83
2022-09-16T20:11:45.834Z,11.80
2022-09-16T20:14:19.760Z,11.78
2022-09-16T20:16:48.193Z,11.68
2022-09-16T20:19:17.834Z,11.66
2022-09-16T20:21:45.886Z,11.60
2022-09-16T20:24:21.827Z,11.54
2022-09-16T20:26:51.358Z,11.56
2022-09-16T20:29:19.463Z,11.45
2022-09-16T20:31:48.828Z,11.39
2022-09-16T20:34:17.094Z,11.29
2022-09-16T20:36:45.966Z,11.22
2022-09-16T20:39:14.763Z,11.19
2022-09-16T20:41:42.950Z,11.18
2022-09-16T20:44:15.537Z,11.14
2022-09-16T20:46:43.485Z,11.08
2022-09-16T20:49:19.498Z,11.04
2022-09-16T20:51:47.172Z,11.04
2022-09-16T20:54:17.048Z,11.07
2022-09-16T20:56:47.042Z,11.08
2022-09-16T20:59:16.312Z,11.11
2022-09-16T21:01:44.621Z,11.06
2022-09-16T21:04:15.525Z,11.15
2022-09-16T21:06:43.200Z,11.18
2022-09-16T21:09:13.565Z,11.15
2022-09-16T21:11:45.026Z,11.23
2022-09-16T21:14:16.113Z,11.23
2022-09-16T21:16:45.278Z,11.28
2022-09-16T21:19:13.468Z,11.30
2022-09-16T21:21:44.049Z,11.31
2022-09-16T21:24:11.676Z,11.33
2022-09-16T21:26:40.470Z,11.36
2022-09-16T21:29:13.347Z,11.40
2022-09-16T21:31:42.569Z,11.40
2022-09-16T21:34:16.000Z,11.38
2022-09-16T21:36:44.995Z,11.42
2022-09-16T21:39:14.142Z,11.42
2022-09-16T21:41:42.445Z,11.44
2022-09-16T21:44:09.936Z,11.47
2022-09-16T21:46:45.055Z,11.46
2022-09-16T21:49:25.306Z,11.44
2022-09-16T21:51:54.719Z,11.43
2022-09-16T21:54:23.093Z,11.37
2022-09-16T21:56:51.802Z,11.36
2022-09-16T21:59:20.604Z,11.35
2022-09-16T22:01:49.406Z,11.38
2022-09-16T22:04:23.085Z,11.39
2022-09-16T22:06:52.693Z,11.42
2022-09-16T22:09:20.206Z,11.42
2022-09-16T22:11:48.293Z,11.38
2022-09-16T22:14:16.373Z,11.37
2022-09-16T22:16:44.178Z,11.37
2022-09-16T22:19:17.522Z,11.35
2022-09-16T22:21:47.469Z,11.43
2022-09-16T22:24:19.888Z,11.42
2022-09-16T22:26:48.840Z,11.33
2022-09-16T22:29:16.423Z,11.28
2022-09-16T22:31:43.990Z,11.17
2022-09-16T22:34:11.676Z,11.22
2022-09-16T22:36:40.035Z,11.18
2022-09-16T22:39:12.725Z,11.16
2022-09-16T22:41:40.296Z,11.18
2022-09-16T22:44:08.071Z,11.17
2022-09-16T22:46:41.409Z,11.26
2022-09-16T22:49:08.930Z,11.25
2022-09-16T22:51:36.404Z,11.31
2022-09-16T22:54:03.957Z,11.39
2022-09-16T22:56:33.663Z,11.43
2022-09-16T22:59:03.492Z,11.44
2022-09-16T23:01:34.125Z,11.44
2022-09-16T23:04:03.184Z,11.47
2022-09-16T23:06:32.526Z,11.47
2022-09-16T23:09:00.760Z,11.49
2022-09-16T23:11:31.472Z,11.46
2022-09-16T23:14:00.173Z,11.49
2022-09-16T23:16:38.290Z,11.49
2022-09-16T23:19:08.657Z,11.41
2022-09-16T23:21:37.326Z,11.44
2022-09-16T23:24:06.938Z,11.44
2022-09-16T23:26:37.780Z,11.44
2022-09-16T23:29:08.014Z,11.41
2022-09-16T23:31:40.270Z,11.41
2022-09-16T23:34:34.083Z,11.39
2022-09-16T23:37:02.007Z,11.40
2022-09-16T23:39:29.499Z,11.46
2022-09-16T23:41:56.995Z,11.37
2022-09-16T23:44:25.596Z,11.43
2022-09-16T23:46:53.096Z,11.43
2022-09-16T23:49:20.772Z,11.36
2022-09-16T23:51:48.724Z,11.31
2022-09-16T23:54:17.211Z,11.35
2022-09-16T23:56:44.193Z,11.32
2022-09-16T23:59:11.801Z,11.28
